sensor_id;sensor_type;location;lat;lon;timestamp;P1;durP1;ratioP1;P2;durP2;ratioP2
40609;SDS011;26316;55.976;37.140;2022-10-15T00:00:52;5.63;;;3.67;;
40609;SDS011;26316;55.976;37.140;2022-10-15T00:03:18;6.75;;;3.90;;
40609;SDS011;26316;55.976;37.140;2022-10-15T00:05:44;6.70;;;4.18;;
40609;SDS011;26316;55.976;37.140;2022-10-15T00:08:10;5.47;;;3.63;;
40609;SDS011;26316;55.976;37.140;2022-10-15T00:10:36;5.95;;;3.63;;
40609;SDS011;26316;55.976;37.140;2022-10-15T00:13:02;5.50;;;3.83;;
40609;SDS011;26316;55.976;37.140;2022-10-15T00:15:29;4.57;;;3.75;;
40609;SDS011;26316;55.976;37.140;2022-10-15T00:17:54;5.95;;;4.13;;
40609;SDS011;26316;55.976;37.140;2022-10-15T00:20:23;4.50;;;3.67;;
40609;SDS011;26316;55.976;37.140;2022-10-15T00:22:49;3.72;;;3.28;;
40609;SDS011;26316;55.976;37.140;2022-10-15T00:25:15;7.13;;;3.30;;
40609;SDS011;26316;55.976;37.140;2022-10-15T00:27:40;4.93;;;3.70;;
40609;SDS011;26316;55.976;37.140;2022-10-15T00:30:06;5.10;;;3.60;;
40609;SDS011;26316;55.976;37.140;2022-10-15T00:32:32;7.18;;;3.67;;
40609;SDS011;26316;55.976;37.140;2022-10-15T00:34:58;5.80;;;3.90;;
40609;SDS011;26316;55.976;37.140;2022-10-15T00:37:24;5.93;;;4.35;;
40609;SDS011;26316;55.976;37.140;2022-10-15T00:39:50;5.57;;;4.15;;
40609;SDS011;26316;55.976;37.140;2022-10-15T00:42:16;7.43;;;4.10;;
40609;SDS011;26316;55.976;37.140;2022-10-15T00:44:46;5.70;;;4.53;;
40609;SDS011;26316;55.976;37.140;2022-10-15T00:47:18;7.90;;;4.90;;
40609;SDS011;26316;55.976;37.140;2022-10-15T00:49:59;9.15;;;4.35;;
40609;SDS011;26316;55.976;37.140;2022-10-15T00:52:31;8.05;;;5.07;;
40609;SDS011;26316;55.976;37.140;2022-10-15T00:55:44;6.30;;;4.70;;
40609;SDS011;26316;55.976;37.140;2022-10-15T00:57:58;6.90;;;4.78;;
40609;SDS011;26316;55.976;37.140;2022-10-15T01:00:26;6.65;;;4.78;;
40609;SDS011;26316;55.976;37.140;2022-10-15T01:02:53;8.80;;;4.97;;
40609;SDS011;26316;55.976;37.140;2022-10-15T01:05:19;8.52;;;4.93;;
40609;SDS011;26316;55.976;37.140;2022-10-15T01:07:47;7.47;;;4.88;;
40609;SDS011;26316;55.976;37.140;2022-10-15T01:10:14;7.95;;;5.25;;
40609;SDS011;26316;55.976;37.140;2022-10-15T01:12:47;6.78;;;4.55;;
40609;SDS011;26316;55.976;37.140;2022-10-15T01:15:44;6.35;;;4.88;;
40609;SDS011;26316;55.976;37.140;2022-10-15T01:29:08;11.25;;;4.70;;
40609;SDS011;26316;55.976;37.140;2022-10-15T01:34:35;7.97;;;4.72;;
40609;SDS011;26316;55.976;37.140;2022-10-15T01:40:14;8.68;;;4.88;;
40609;SDS011;26316;55.976;37.140;2022-10-15T01:45:47;9.13;;;5.22;;
40609;SDS011;26316;55.976;37.140;2022-10-15T01:48:29;7.55;;;4.45;;
40609;SDS011;26316;55.976;37.140;2022-10-15T01:50:57;7.20;;;4.78;;
40609;SDS011;26316;55.976;37.140;2022-10-15T01:53:25;7.37;;;4.90;;
40609;SDS011;26316;55.976;37.140;2022-10-15T01:55:52;6.65;;;4.30;;
40609;SDS011;26316;55.976;37.140;2022-10-15T01:58:22;6.30;;;4.30;;
40609;SDS011;26316;55.976;37.140;2022-10-15T02:00:48;6.35;;;4.18;;
40609;SDS011;26316;55.976;37.140;2022-10-15T02:03:16;5.30;;;4.07;;
40609;SDS011;26316;55.976;37.140;2022-10-15T02:05:47;4.32;;;3.92;;
40609;SDS011;26316;55.976;37.140;2022-10-15T02:08:33;6.22;;;4.20;;
40609;SDS011;26316;55.976;37.140;2022-10-15T02:11:08;8.38;;;4.22;;
40609;SDS011;26316;55.976;37.140;2022-10-15T02:16:21;7.82;;;4.00;;
40609;SDS011;26316;55.976;37.140;2022-10-15T02:22:16;6.57;;;4.20;;
40609;SDS011;26316;55.976;37.140;2022-10-15T02:27:23;7.50;;;4.18;;
40609;SDS011;26316;55.976;37.140;2022-10-15T02:29:51;6.15;;;4.28;;
40609;SDS011;26316;55.976;37.140;2022-10-15T02:32:18;5.90;;;4.22;;
40609;SDS011;26316;55.976;37.140;2022-10-15T02:34:46;5.18;;;4.20;;
40609;SDS011;26316;55.976;37.140;2022-10-15T02:37:13;5.15;;;4.63;;
40609;SDS011;26316;55.976;37.140;2022-10-15T02:39:42;6.05;;;4.70;;
40609;SDS011;26316;55.976;37.140;2022-10-15T02:42:08;5.30;;;4.20;;
40609;SDS011;26316;55.976;37.140;2022-10-15T02:44:34;7.03;;;3.95;;
40609;SDS011;26316;55.976;37.140;2022-10-15T02:47:00;11.77;;;3.78;;
40609;SDS011;26316;55.976;37.140;2022-10-15T02:49:26;6.95;;;3.15;;
40609;SDS011;26316;55.976;37.140;2022-10-15T02:51:52;4.80;;;3.22;;
40609;SDS011;26316;55.976;37.140;2022-10-15T02:54:18;4.75;;;3.42;;
40609;SDS011;26316;55.976;37.140;2022-10-15T02:56:45;8.55;;;3.53;;
40609;SDS011;26316;55.976;37.140;2022-10-15T02:59:12;7.20;;;3.40;;
40609;SDS011;26316;55.976;37.140;2022-10-15T03:01:38;6.28;;;3.08;;
40609;SDS011;26316;55.976;37.140;2022-10-15T03:04:04;5.07;;;3.17;;
40609;SDS011;26316;55.976;37.140;2022-10-15T03:06:30;5.53;;;3.50;;
40609;SDS011;26316;55.976;37.140;2022-10-15T03:08:56;8.40;;;3.20;;
40609;SDS011;26316;55.976;37.140;2022-10-15T03:11:23;5.00;;;3.38;;
40609;SDS011;26316;55.976;37.140;2022-10-15T03:13:48;7.65;;;3.40;;
40609;SDS011;26316;55.976;37.140;2022-10-15T03:16:14;4.75;;;2.70;;
40609;SDS011;26316;55.976;37.140;2022-10-15T03:18:43;8.10;;;3.40;;
40609;SDS011;26316;55.976;37.140;2022-10-15T03:21:09;8.77;;;3.50;;
40609;SDS011;26316;55.976;37.140;2022-10-15T03:23:35;3.75;;;2.95;;
40609;SDS011;26316;55.976;37.140;2022-10-15T03:26:07;6.43;;;3.40;;
40609;SDS011;26316;55.976;37.140;2022-10-15T03:28:33;4.03;;;3.10;;
40609;SDS011;26316;55.976;37.140;2022-10-15T03:30:59;5.03;;;3.28;;
40609;SDS011;26316;55.976;37.140;2022-10-15T03:33:25;4.13;;;3.17;;
40609;SDS011;26316;55.976;37.140;2022-10-15T03:35:53;5.53;;;2.90;;
40609;SDS011;26316;55.976;37.140;2022-10-15T03:38:19;7.30;;;3.00;;
40609;SDS011;26316;55.976;37.140;2022-10-15T03:40:46;5.82;;;3.42;;
40609;SDS011;26316;55.976;37.140;2022-10-15T03:43:22;4.05;;;3.25;;
40609;SDS011;26316;55.976;37.140;2022-10-15T03:45:50;4.63;;;3.50;;
40609;SDS011;26316;55.976;37.140;2022-10-15T03:48:19;7.32;;;3.60;;
40609;SDS011;26316;55.976;37.140;2022-10-15T03:50:47;6.70;;;2.80;;
40609;SDS011;26316;55.976;37.140;2022-10-15T03:53:14;5.30;;;2.97;;
40609;SDS011;26316;55.976;37.140;2022-10-15T03:55:39;4.55;;;2.70;;
40609;SDS011;26316;55.976;37.140;2022-10-15T03:58:06;4.90;;;3.40;;
40609;SDS011;26316;55.976;37.140;2022-10-15T04:00:33;4.03;;;2.92;;
40609;SDS011;26316;55.976;37.140;2022-10-15T04:03:01;5.47;;;3.22;;
40609;SDS011;26316;55.976;37.140;2022-10-15T04:05:27;3.17;;;2.88;;
40609;SDS011;26316;55.976;37.140;2022-10-15T04:08:04;3.70;;;2.95;;
40609;SDS011;26316;55.976;37.140;2022-10-15T04:10:33;5.10;;;3.00;;
40609;SDS011;26316;55.976;37.140;2022-10-15T04:12:59;5.07;;;2.95;;
40609;SDS011;26316;55.976;37.140;2022-10-15T04:15:26;5.18;;;3.15;;
40609;SDS011;26316;55.976;37.140;2022-10-15T04:17:56;6.00;;;2.90;;
40609;SDS011;26316;55.976;37.140;2022-10-15T04:20:24;5.68;;;3.22;;
40609;SDS011;26316;55.976;37.140;2022-10-15T04:22:50;6.18;;;2.60;;
40609;SDS011;26316;55.976;37.140;2022-10-15T04:25:16;5.20;;;2.95;;
40609;SDS011;26316;55.976;37.140;2022-10-15T04:27:42;4.93;;;2.92;;
40609;SDS011;26316;55.976;37.140;2022-10-15T04:30:11;5.15;;;2.88;;
40609;SDS011;26316;55.976;37.140;2022-10-15T04:32:46;4.47;;;2.80;;
40609;SDS011;26316;55.976;37.140;2022-10-15T04:35:12;5.68;;;2.97;;
40609;SDS011;26316;55.976;37.140;2022-10-15T04:37:49;3.65;;;2.88;;
40609;SDS011;26316;55.976;37.140;2022-10-15T04:40:15;5.43;;;3.03;;
40609;SDS011;26316;55.976;37.140;2022-10-15T04:42:42;3.13;;;2.80;;
40609;SDS011;26316;55.976;37.140;2022-10-15T04:45:08;4.43;;;2.70;;
40609;SDS011;26316;55.976;37.140;2022-10-15T04:47:34;4.10;;;3.20;;
40609;SDS011;26316;55.976;37.140;2022-10-15T04:50:12;4.22;;;2.60;;
40609;SDS011;26316;55.976;37.140;2022-10-15T04:52:58;3.80;;;2.85;;
40609;SDS011;26316;55.976;37.140;2022-10-15T04:55:25;6.05;;;2.80;;
40609;SDS011;26316;55.976;37.140;2022-10-15T04:57:56;4.40;;;3.03;;
40609;SDS011;26316;55.976;37.140;2022-10-15T05:00:27;5.13;;;2.60;;
40609;SDS011;26316;55.976;37.140;2022-10-15T05:02:52;5.07;;;2.70;;
40609;SDS011;26316;55.976;37.140;2022-10-15T05:05:31;4.45;;;2.90;;
40609;SDS011;26316;55.976;37.140;2022-10-15T05:10:28;12.73;;;3.65;;
40609;SDS011;26316;55.976;37.140;2022-10-15T05:12:54;5.32;;;2.65;;
40609;SDS011;26316;55.976;37.140;2022-10-15T05:15:27;6.90;;;2.78;;
40609;SDS011;26316;55.976;37.140;2022-10-15T05:17:52;6.10;;;3.20;;
40609;SDS011;26316;55.976;37.140;2022-10-15T05:20:18;3.90;;;2.92;;
40609;SDS011;26316;55.976;37.140;2022-10-15T05:22:44;5.10;;;3.30;;
40609;SDS011;26316;55.976;37.140;2022-10-15T05:25:12;6.57;;;4.63;;
40609;SDS011;26316;55.976;37.140;2022-10-15T05:27:39;7.45;;;4.50;;
40609;SDS011;26316;55.976;37.140;2022-10-15T05:30:05;6.25;;;5.05;;
40609;SDS011;26316;55.976;37.140;2022-10-15T05:32:50;5.38;;;4.80;;
40609;SDS011;26316;55.976;37.140;2022-10-15T05:35:17;5.60;;;3.65;;
40609;SDS011;26316;55.976;37.140;2022-10-15T05:37:52;6.30;;;3.67;;
40609;SDS011;26316;55.976;37.140;2022-10-15T05:40:18;5.05;;;3.75;;
40609;SDS011;26316;55.976;37.140;2022-10-15T05:42:52;5.15;;;3.70;;
40609;SDS011;26316;55.976;37.140;2022-10-15T05:45:18;6.90;;;3.65;;
40609;SDS011;26316;55.976;37.140;2022-10-15T05:47:43;8.20;;;3.55;;
40609;SDS011;26316;55.976;37.140;2022-10-15T05:50:16;6.93;;;3.80;;
40609;SDS011;26316;55.976;37.140;2022-10-15T05:52:45;5.95;;;3.17;;
40609;SDS011;26316;55.976;37.140;2022-10-15T05:55:21;3.22;;;2.75;;
40609;SDS011;26316;55.976;37.140;2022-10-15T05:57:50;18.40;;;7.20;;
40609;SDS011;26316;55.976;37.140;2022-10-15T06:00:16;19.50;;;6.43;;
40609;SDS011;26316;55.976;37.140;2022-10-15T06:02:50;10.63;;;4.60;;
40609;SDS011;26316;55.976;37.140;2022-10-15T06:05:16;8.68;;;4.28;;
40609;SDS011;26316;55.976;37.140;2022-10-15T06:07:42;11.73;;;4.03;;
40609;SDS011;26316;55.976;37.140;2022-10-15T06:10:07;8.20;;;4.28;;
40609;SDS011;26316;55.976;37.140;2022-10-15T06:12:33;6.00;;;3.35;;
40609;SDS011;26316;55.976;37.140;2022-10-15T06:14:59;7.57;;;3.30;;
40609;SDS011;26316;55.976;37.140;2022-10-15T06:17:25;6.68;;;3.60;;
40609;SDS011;26316;55.976;37.140;2022-10-15T06:19:50;4.65;;;3.15;;
40609;SDS011;26316;55.976;37.140;2022-10-15T06:22:16;7.13;;;2.92;;
40609;SDS011;26316;55.976;37.140;2022-10-15T06:24:41;8.10;;;3.53;;
40609;SDS011;26316;55.976;37.140;2022-10-15T06:27:07;8.50;;;4.00;;
40609;SDS011;26316;55.976;37.140;2022-10-15T06:29:34;6.70;;;3.45;;
40609;SDS011;26316;55.976;37.140;2022-10-15T06:32:00;4.30;;;3.28;;
40609;SDS011;26316;55.976;37.140;2022-10-15T06:34:26;5.95;;;3.53;;
40609;SDS011;26316;55.976;37.140;2022-10-15T06:36:52;4.22;;;3.20;;
40609;SDS011;26316;55.976;37.140;2022-10-15T06:39:18;5.68;;;3.40;;
40609;SDS011;26316;55.976;37.140;2022-10-15T06:41:43;3.70;;;3.15;;
40609;SDS011;26316;55.976;37.140;2022-10-15T06:44:09;5.32;;;3.25;;
40609;SDS011;26316;55.976;37.140;2022-10-15T06:46:35;7.72;;;3.28;;
40609;SDS011;26316;55.976;37.140;2022-10-15T06:49:01;5.60;;;3.25;;
40609;SDS011;26316;55.976;37.140;2022-10-15T06:51:27;4.18;;;2.95;;
40609;SDS011;26316;55.976;37.140;2022-10-15T06:53:53;7.57;;;3.08;;
40609;SDS011;26316;55.976;37.140;2022-10-15T06:56:19;3.78;;;2.80;;
40609;SDS011;26316;55.976;37.140;2022-10-15T06:58:44;3.50;;;2.70;;
40609;SDS011;26316;55.976;37.140;2022-10-15T07:01:10;7.72;;;3.47;;
40609;SDS011;26316;55.976;37.140;2022-10-15T07:03:36;7.95;;;3.33;;
40609;SDS011;26316;55.976;37.140;2022-10-15T07:06:06;3.50;;;2.57;;
40609;SDS011;26316;55.976;37.140;2022-10-15T07:08:32;2.72;;;2.50;;
40609;SDS011;26316;55.976;37.140;2022-10-15T07:11:02;6.93;;;2.60;;
40609;SDS011;26316;55.976;37.140;2022-10-15T07:13:29;6.38;;;2.33;;
40609;SDS011;26316;55.976;37.140;2022-10-15T07:15:56;2.92;;;2.50;;
40609;SDS011;26316;55.976;37.140;2022-10-15T07:18:22;4.60;;;2.78;;
40609;SDS011;26316;55.976;37.140;2022-10-15T07:20:48;4.60;;;2.67;;
40609;SDS011;26316;55.976;37.140;2022-10-15T07:23:14;5.60;;;2.55;;
40609;SDS011;26316;55.976;37.140;2022-10-15T07:25:39;3.90;;;2.67;;
40609;SDS011;26316;55.976;37.140;2022-10-15T07:28:05;5.45;;;2.72;;
40609;SDS011;26316;55.976;37.140;2022-10-15T07:30:31;3.85;;;2.78;;
40609;SDS011;26316;55.976;37.140;2022-10-15T07:32:57;4.25;;;2.72;;
40609;SDS011;26316;55.976;37.140;2022-10-15T07:35:24;8.30;;;3.90;;
40609;SDS011;26316;55.976;37.140;2022-10-15T07:37:50;4.20;;;2.60;;
40609;SDS011;26316;55.976;37.140;2022-10-15T07:40:16;6.47;;;3.10;;
40609;SDS011;26316;55.976;37.140;2022-10-15T07:42:42;4.63;;;2.35;;
40609;SDS011;26316;55.976;37.140;2022-10-15T07:45:08;7.20;;;3.05;;
40609;SDS011;26316;55.976;37.140;2022-10-15T07:47:34;7.88;;;3.17;;
40609;SDS011;26316;55.976;37.140;2022-10-15T07:50:00;6.97;;;3.00;;
40609;SDS011;26316;55.976;37.140;2022-10-15T07:52:26;5.65;;;3.85;;
40609;SDS011;26316;55.976;37.140;2022-10-15T07:54:51;6.70;;;3.50;;
40609;SDS011;26316;55.976;37.140;2022-10-15T07:57:17;6.70;;;3.10;;
40609;SDS011;26316;55.976;37.140;2022-10-15T07:59:44;6.85;;;3.97;;
40609;SDS011;26316;55.976;37.140;2022-10-15T08:02:14;5.78;;;3.30;;
40609;SDS011;26316;55.976;37.140;2022-10-15T08:04:41;4.85;;;3.20;;
40609;SDS011;26316;55.976;37.140;2022-10-15T08:07:06;8.93;;;3.47;;
40609;SDS011;26316;55.976;37.140;2022-10-15T08:09:32;3.97;;;3.00;;
40609;SDS011;26316;55.976;37.140;2022-10-15T08:11:58;7.38;;;3.05;;
40609;SDS011;26316;55.976;37.140;2022-10-15T08:14:23;3.50;;;2.80;;
40609;SDS011;26316;55.976;37.140;2022-10-15T08:16:49;5.80;;;2.90;;
40609;SDS011;26316;55.976;37.140;2022-10-15T08:19:15;7.68;;;3.40;;
40609;SDS011;26316;55.976;37.140;2022-10-15T08:21:45;4.35;;;2.75;;
40609;SDS011;26316;55.976;37.140;2022-10-15T08:24:11;4.15;;;2.33;;
40609;SDS011;26316;55.976;37.140;2022-10-15T08:26:37;3.22;;;2.50;;
40609;SDS011;26316;55.976;37.140;2022-10-15T08:29:03;2.88;;;2.58;;
40609;SDS011;26316;55.976;37.140;2022-10-15T08:31:28;4.28;;;2.72;;
40609;SDS011;26316;55.976;37.140;2022-10-15T08:33:58;4.28;;;3.05;;
40609;SDS011;26316;55.976;37.140;2022-10-15T08:36:24;3.53;;;2.78;;
40609;SDS011;26316;55.976;37.140;2022-10-15T08:38:50;4.03;;;2.40;;
40609;SDS011;26316;55.976;37.140;2022-10-15T08:41:51;2.50;;;2.30;;
40609;SDS011;26316;55.976;37.140;2022-10-15T08:44:22;2.58;;;2.38;;
40609;SDS011;26316;55.976;37.140;2022-10-15T08:49:59;5.50;;;2.75;;
40609;SDS011;26316;55.976;37.140;2022-10-15T08:55:14;4.25;;;2.63;;
40609;SDS011;26316;55.976;37.140;2022-10-15T08:57:42;4.82;;;3.08;;
40609;SDS011;26316;55.976;37.140;2022-10-15T09:00:13;3.40;;;2.50;;
40609;SDS011;26316;55.976;37.140;2022-10-15T09:02:46;6.60;;;2.63;;
40609;SDS011;26316;55.976;37.140;2022-10-15T09:08:29;4.45;;;2.40;;
40609;SDS011;26316;55.976;37.140;2022-10-15T09:11:15;2.58;;;2.38;;
40609;SDS011;26316;55.976;37.140;2022-10-15T09:13:47;4.30;;;2.28;;
40609;SDS011;26316;55.976;37.140;2022-10-15T09:16:23;6.15;;;2.50;;
40609;SDS011;26316;55.976;37.140;2022-10-15T09:18:54;3.65;;;2.50;;
40609;SDS011;26316;55.976;37.140;2022-10-15T09:21:21;5.85;;;2.40;;
40609;SDS011;26316;55.976;37.140;2022-10-15T09:23:50;5.30;;;2.63;;
40609;SDS011;26316;55.976;37.140;2022-10-15T09:26:25;3.20;;;2.75;;
40609;SDS011;26316;55.976;37.140;2022-10-15T09:31:52;9.35;;;2.25;;
40609;SDS011;26316;55.976;37.140;2022-10-15T09:34:32;12.85;;;2.60;;
40609;SDS011;26316;55.976;37.140;2022-10-15T09:37:08;11.55;;;2.20;;
40609;SDS011;26316;55.976;37.140;2022-10-15T09:42:41;6.75;;;2.63;;
40609;SDS011;26316;55.976;37.140;2022-10-15T09:45:13;5.47;;;2.22;;
40609;SDS011;26316;55.976;37.140;2022-10-15T09:47:39;7.65;;;2.80;;
40609;SDS011;26316;55.976;37.140;2022-10-15T09:50:07;8.55;;;2.42;;
40609;SDS011;26316;55.976;37.140;2022-10-15T09:57:50;8.88;;;2.67;;
40609;SDS011;26316;55.976;37.140;2022-10-15T10:00:19;4.45;;;2.97;;
40609;SDS011;26316;55.976;37.140;2022-10-15T10:02:47;7.25;;;2.78;;
40609;SDS011;26316;55.976;37.140;2022-10-15T10:05:30;5.25;;;2.50;;
40609;SDS011;26316;55.976;37.140;2022-10-15T10:08:06;5.70;;;2.53;;
40609;SDS011;26316;55.976;37.140;2022-10-15T10:10:35;5.28;;;2.33;;
40609;SDS011;26316;55.976;37.140;2022-10-15T10:13:01;6.60;;;2.85;;
40609;SDS011;26316;55.976;37.140;2022-10-15T10:15:31;8.43;;;3.05;;
40609;SDS011;26316;55.976;37.140;2022-10-15T10:17:59;9.23;;;2.50;;
40609;SDS011;26316;55.976;37.140;2022-10-15T10:20:29;7.78;;;2.40;;
40609;SDS011;26316;55.976;37.140;2022-10-15T10:22:57;5.80;;;2.63;;
40609;SDS011;26316;55.976;37.140;2022-10-15T10:30:42;3.17;;;2.88;;
40609;SDS011;26316;55.976;37.140;2022-10-15T10:36:06;4.93;;;3.33;;
40609;SDS011;26316;55.976;37.140;2022-10-15T10:38:42;4.28;;;3.08;;
40609;SDS011;26316;55.976;37.140;2022-10-15T10:41:19;5.82;;;3.25;;
40609;SDS011;26316;55.976;37.140;2022-10-15T10:43:52;5.35;;;3.38;;
40609;SDS011;26316;55.976;37.140;2022-10-15T10:46:19;5.00;;;3.30;;
40609;SDS011;26316;55.976;37.140;2022-10-15T10:48:47;7.60;;;3.38;;
40609;SDS011;26316;55.976;37.140;2022-10-15T10:51:21;13.38;;;3.80;;
40609;SDS011;26316;55.976;37.140;2022-10-15T10:53:56;7.85;;;3.65;;
40609;SDS011;26316;55.976;37.140;2022-10-15T10:56:35;5.88;;;3.30;;
40609;SDS011;26316;55.976;37.140;2022-10-15T10:59:48;7.97;;;3.60;;
40609;SDS011;26316;55.976;37.140;2022-10-15T11:01:56;4.78;;;3.17;;
40609;SDS011;26316;55.976;37.140;2022-10-15T11:04:23;4.15;;;3.72;;
40609;SDS011;26316;55.976;37.140;2022-10-15T11:07:00;5.47;;;3.58;;
40609;SDS011;26316;55.976;37.140;2022-10-15T11:31:43;6.20;;;4.05;;
40609;SDS011;26316;55.976;37.140;2022-10-15T11:39:33;6.88;;;4.35;;
40609;SDS011;26316;55.976;37.140;2022-10-15T11:42:40;7.60;;;4.25;;
40609;SDS011;26316;55.976;37.140;2022-10-15T11:58:53;7.77;;;4.13;;
40609;SDS011;26316;55.976;37.140;2022-10-15T12:01:32;7.05;;;3.88;;
40609;SDS011;26316;55.976;37.140;2022-10-15T12:04:26;7.07;;;3.95;;
40609;SDS011;26316;55.976;37.140;2022-10-15T12:06:56;9.68;;;4.28;;
40609;SDS011;26316;55.976;37.140;2022-10-15T12:09:24;7.63;;;4.18;;
40609;SDS011;26316;55.976;37.140;2022-10-15T12:11:58;5.32;;;4.10;;
40609;SDS011;26316;55.976;37.140;2022-10-15T12:20:11;7.60;;;3.85;;
40609;SDS011;26316;55.976;37.140;2022-10-15T12:25:52;10.07;;;3.78;;
40609;SDS011;26316;55.976;37.140;2022-10-15T12:28:00;7.90;;;4.03;;
40609;SDS011;26316;55.976;37.140;2022-10-15T12:30:35;6.55;;;3.83;;
40609;SDS011;26316;55.976;37.140;2022-10-15T12:33:02;5.18;;;4.05;;
40609;SDS011;26316;55.976;37.140;2022-10-15T12:35:33;5.03;;;3.53;;
40609;SDS011;26316;55.976;37.140;2022-10-15T12:40:58;5.32;;;3.65;;
40609;SDS011;26316;55.976;37.140;2022-10-15T12:43:26;5.22;;;3.70;;
40609;SDS011;26316;55.976;37.140;2022-10-15T12:45:54;7.10;;;3.50;;
40609;SDS011;26316;55.976;37.140;2022-10-15T12:48:32;8.68;;;4.60;;
40609;SDS011;26316;55.976;37.140;2022-10-15T12:53:43;4.93;;;3.47;;
40609;SDS011;26316;55.976;37.140;2022-10-15T12:56:11;6.85;;;4.15;;
40609;SDS011;26316;55.976;37.140;2022-10-15T12:58:47;6.40;;;4.35;;
40609;SDS011;26316;55.976;37.140;2022-10-15T13:06:14;6.95;;;3.92;;
40609;SDS011;26316;55.976;37.140;2022-10-15T13:08:58;6.38;;;4.05;;
40609;SDS011;26316;55.976;37.140;2022-10-15T13:11:30;4.05;;;3.55;;
40609;SDS011;26316;55.976;37.140;2022-10-15T13:14:19;5.63;;;3.72;;
40609;SDS011;26316;55.976;37.140;2022-10-15T13:16:53;5.97;;;4.35;;
40609;SDS011;26316;55.976;37.140;2022-10-15T13:19:20;6.70;;;4.22;;
40609;SDS011;26316;55.976;37.140;2022-10-15T13:21:55;6.53;;;4.47;;
40609;SDS011;26316;55.976;37.140;2022-10-15T13:24:38;8.40;;;4.13;;
40609;SDS011;26316;55.976;37.140;2022-10-15T13:27:12;7.45;;;4.88;;
40609;SDS011;26316;55.976;37.140;2022-10-15T13:29:56;6.60;;;4.20;;
40609;SDS011;26316;55.976;37.140;2022-10-15T13:32:26;8.20;;;3.85;;
40609;SDS011;26316;55.976;37.140;2022-10-15T13:34:54;7.70;;;4.77;;
40609;SDS011;26316;55.976;37.140;2022-10-15T13:37:31;6.82;;;4.47;;
40609;SDS011;26316;55.976;37.140;2022-10-15T13:39:59;5.20;;;4.20;;
40609;SDS011;26316;55.976;37.140;2022-10-15T13:42:26;6.40;;;4.75;;
40609;SDS011;26316;55.976;37.140;2022-10-15T13:44:59;5.90;;;4.45;;
40609;SDS011;26316;55.976;37.140;2022-10-15T13:47:31;5.60;;;4.57;;
40609;SDS011;26316;55.976;37.140;2022-10-15T13:52:55;6.28;;;4.10;;
40609;SDS011;26316;55.976;37.140;2022-10-15T13:55:29;6.50;;;4.60;;
40609;SDS011;26316;55.976;37.140;2022-10-15T13:58:01;7.55;;;4.38;;
40609;SDS011;26316;55.976;37.140;2022-10-15T14:00:33;5.32;;;3.72;;
40609;SDS011;26316;55.976;37.140;2022-10-15T14:05:47;8.65;;;4.20;;
40609;SDS011;26316;55.976;37.140;2022-10-15T14:08:18;5.85;;;4.72;;
40609;SDS011;26316;55.976;37.140;2022-10-15T14:10:50;6.80;;;4.57;;
40609;SDS011;26316;55.976;37.140;2022-10-15T14:13:17;7.53;;;5.20;;
40609;SDS011;26316;55.976;37.140;2022-10-15T14:15:44;6.38;;;4.70;;
40609;SDS011;26316;55.976;37.140;2022-10-15T14:18:27;9.80;;;5.38;;
40609;SDS011;26316;55.976;37.140;2022-10-15T14:20:56;10.20;;;5.35;;
40609;SDS011;26316;55.976;37.140;2022-10-15T14:23:22;6.03;;;4.88;;
40609;SDS011;26316;55.976;37.140;2022-10-15T14:25:56;8.27;;;5.30;;
40609;SDS011;26316;55.976;37.140;2022-10-15T14:28:23;9.00;;;5.55;;
40609;SDS011;26316;55.976;37.140;2022-10-15T14:30:50;5.68;;;4.68;;
40609;SDS011;26316;55.976;37.140;2022-10-15T14:38:30;5.88;;;5.20;;
40609;SDS011;26316;55.976;37.140;2022-10-15T14:41:00;6.80;;;5.05;;
40609;SDS011;26316;55.976;37.140;2022-10-15T14:43:33;5.78;;;4.82;;
40609;SDS011;26316;55.976;37.140;2022-10-15T14:46:01;5.88;;;4.70;;
40609;SDS011;26316;55.976;37.140;2022-10-15T14:51:00;8.57;;;5.40;;
40609;SDS011;26316;55.976;37.140;2022-10-15T14:53:30;8.07;;;6.15;;
40609;SDS011;26316;55.976;37.140;2022-10-15T14:56:03;8.52;;;5.70;;
40609;SDS011;26316;55.976;37.140;2022-10-15T15:00:57;7.43;;;5.18;;
40609;SDS011;26316;55.976;37.140;2022-10-15T15:03:57;8.93;;;5.95;;
40609;SDS011;26316;55.976;37.140;2022-10-15T15:06:16;8.38;;;5.85;;
40609;SDS011;26316;55.976;37.140;2022-10-15T15:08:43;10.30;;;6.70;;
40609;SDS011;26316;55.976;37.140;2022-10-15T15:11:18;8.63;;;6.25;;
40609;SDS011;26316;55.976;37.140;2022-10-15T15:13:46;7.43;;;5.78;;
40609;SDS011;26316;55.976;37.140;2022-10-15T15:16:13;13.48;;;7.00;;
40609;SDS011;26316;55.976;37.140;2022-10-15T15:18:40;11.73;;;6.63;;
40609;SDS011;26316;55.976;37.140;2022-10-15T15:21:09;9.15;;;6.25;;
40609;SDS011;26316;55.976;37.140;2022-10-15T15:23:37;9.13;;;6.60;;
40609;SDS011;26316;55.976;37.140;2022-10-15T15:26:03;12.88;;;6.80;;
40609;SDS011;26316;55.976;37.140;2022-10-15T15:28:29;12.85;;;6.70;;
40609;SDS011;26316;55.976;37.140;2022-10-15T15:30:55;10.27;;;6.75;;
40609;SDS011;26316;55.976;37.140;2022-10-15T15:33:22;10.13;;;6.93;;
40609;SDS011;26316;55.976;37.140;2022-10-15T15:35:49;11.10;;;7.00;;
40609;SDS011;26316;55.976;37.140;2022-10-15T15:38:17;9.20;;;6.90;;
40609;SDS011;26316;55.976;37.140;2022-10-15T15:40:44;11.20;;;7.63;;
40609;SDS011;26316;55.976;37.140;2022-10-15T15:43:11;12.32;;;7.53;;
40609;SDS011;26316;55.976;37.140;2022-10-15T15:45:38;11.50;;;6.97;;
40609;SDS011;26316;55.976;37.140;2022-10-15T15:48:04;13.38;;;7.28;;
40609;SDS011;26316;55.976;37.140;2022-10-15T15:50:30;13.15;;;8.18;;
40609;SDS011;26316;55.976;37.140;2022-10-15T15:52:56;12.25;;;7.78;;
40609;SDS011;26316;55.976;37.140;2022-10-15T15:55:22;10.23;;;7.85;;
40609;SDS011;26316;55.976;37.140;2022-10-15T15:57:48;12.48;;;7.47;;
40609;SDS011;26316;55.976;37.140;2022-10-15T16:00:14;12.73;;;6.72;;
40609;SDS011;26316;55.976;37.140;2022-10-15T16:02:40;14.27;;;8.32;;
40609;SDS011;26316;55.976;37.140;2022-10-15T16:05:07;13.05;;;7.90;;
40609;SDS011;26316;55.976;37.140;2022-10-15T16:07:33;15.07;;;7.22;;
40609;SDS011;26316;55.976;37.140;2022-10-15T16:09:59;11.75;;;8.02;;
40609;SDS011;26316;55.976;37.140;2022-10-15T16:12:25;10.10;;;7.47;;
40609;SDS011;26316;55.976;37.140;2022-10-15T16:14:51;14.30;;;7.78;;
40609;SDS011;26316;55.976;37.140;2022-10-15T16:17:16;12.57;;;6.78;;
40609;SDS011;26316;55.976;37.140;2022-10-15T16:19:42;11.27;;;8.00;;
40609;SDS011;26316;55.976;37.140;2022-10-15T16:22:08;12.13;;;7.47;;
40609;SDS011;26316;55.976;37.140;2022-10-15T16:24:34;10.05;;;7.20;;
40609;SDS011;26316;55.976;37.140;2022-10-15T16:27:00;11.10;;;6.72;;
40609;SDS011;26316;55.976;37.140;2022-10-15T16:29:26;11.18;;;7.50;;
40609;SDS011;26316;55.976;37.140;2022-10-15T16:31:51;12.10;;;7.28;;
40609;SDS011;26316;55.976;37.140;2022-10-15T16:34:17;12.77;;;7.97;;
40609;SDS011;26316;55.976;37.140;2022-10-15T16:36:43;11.73;;;7.25;;
40609;SDS011;26316;55.976;37.140;2022-10-15T16:39:08;15.65;;;8.38;;
40609;SDS011;26316;55.976;37.140;2022-10-15T16:41:34;12.52;;;7.57;;
40609;SDS011;26316;55.976;37.140;2022-10-15T16:44:00;11.90;;;7.45;;
40609;SDS011;26316;55.976;37.140;2022-10-15T16:46:26;12.15;;;7.57;;
40609;SDS011;26316;55.976;37.140;2022-10-15T16:48:52;13.00;;;8.75;;
40609;SDS011;26316;55.976;37.140;2022-10-15T16:51:19;12.50;;;8.05;;
40609;SDS011;26316;55.976;37.140;2022-10-15T16:53:45;12.98;;;8.15;;
40609;SDS011;26316;55.976;37.140;2022-10-15T16:56:22;16.08;;;7.15;;
40609;SDS011;26316;55.976;37.140;2022-10-15T16:58:49;15.10;;;8.20;;
40609;SDS011;26316;55.976;37.140;2022-10-15T17:01:16;12.63;;;8.82;;